Wetterstation Vordersexau
Wetterdaten: Woche 18.06.12 - 24.06.12 (KW25)
Datum Zeit Temp. A. Feuchte A. Luftdruck Regen Wind Richtung Taupunkt Windchill Windben
18.06.2012 00:00 14,7 C 83 % 1015,7 hPa 0,0 l/m 0,0 km/h O-NO 11,8 C 14,7 C 0,0 km/h
18.06.2012 01:00 14,5 C 83 % 1014,9 hPa 0,0 l/m 0,0 km/h O 11,6 C 14,5 C 0,0 km/h
18.06.2012 02:00 13,9 C 83 % 1014,5 hPa 0,0 l/m 0,0 km/h O-SO 11,1 C 13,9 C 0,0 km/h
18.06.2012 03:00 13,4 C 83 % 1014,0 hPa 0,0 l/m 0,0 km/h O-NO 10,6 C 13,4 C 0,0 km/h
18.06.2012 04:00 13,3 C 82 % 1013,3 hPa 0,0 l/m 0,0 km/h O-SO 10,3 C 13,3 C 0,0 km/h
18.06.2012 05:00 13,2 C 81 % 1012,9 hPa 0,0 l/m 0,0 km/h SO 10,0 C 13,2 C 0,0 km/h
18.06.2012 06:00 14,3 C 79 % 1012,1 hPa 0,0 l/m 0,0 km/h SO 10,7 C 14,3 C 0,0 km/h
18.06.2012 07:00 16,4 C 71 % 1012,6 hPa 0,0 l/m 0,0 km/h SO 11,1 C 16,4 C 0,0 km/h
18.06.2012 08:00 27,3 C 59 % 1012,2 hPa 0,0 l/m 0,0 km/h O-NO 18,6 C 27,3 C 0,0 km/h
18.06.2012 09:00 19,5 C 75 % 1014,4 hPa 0,0 l/m 0,0 km/h S-SW 14,9 C 19,5 C 0,0 km/h
18.06.2012 10:00 28,4 C 58 % 1013,8 hPa 0,0 l/m 5,8 km/h S-SW 19,3 C 28,4 C 3,2 km/h
18.06.2012 11:00 28,9 C 42 % 1014,0 hPa 0,0 l/m 30,5 km/h SW 14,7 C 27,2 C 16,9 km/h
18.06.2012 12:00 29,9 C 45 % 1014,3 hPa 0,0 l/m 18,1 km/h S-SW 16,7 C 29,1 C 10,1 km/h
18.06.2012 13:00 29,9 C 47 % 1014,2 hPa 0,0 l/m 17,5 km/h S-SW 17,3 C 29,1 C 9,7 km/h
18.06.2012 14:00 30,1 C 44 % 1014,5 hPa 0,0 l/m 20,1 km/h W-NW 16,5 C 29,2 C 11,2 km/h
18.06.2012 15:00 32,3 C 42 % 1014,3 hPa 0,0 l/m 7,1 km/h W 17,7 C 32,3 C 4,0 km/h
18.06.2012 16:00 31,1 C 43 % 1014,5 hPa 0,0 l/m 4,5 km/h NW 17,0 C 31,1 C 2,5 km/h
18.06.2012 17:00 32,3 C 40 % 1014,5 hPa 0,0 l/m 9,1 km/h NW 16,9 C 32,2 C 5,0 km/h
18.06.2012 18:00 28,0 C 51 % 1015,4 hPa 0,0 l/m 20,1 km/h N 16,9 C 26,5 C 11,2 km/h
18.06.2012 19:00 26,6 C 56 % 1015,3 hPa 0,0 l/m 0,0 km/h O-NO 17,1 C 26,6 C 0,0 km/h
18.06.2012 20:00 23,9 C 60 % 1015,7 hPa 0,0 l/m 0,0 km/h N-NO 15,7 C 23,9 C 0,0 km/h
18.06.2012 21:00 20,9 C 70 % 1016,4 hPa 0,0 l/m 0,0 km/h O-SO 15,2 C 20,9 C 0,0 km/h
18.06.2012 22:00 19,0 C 77 % 1016,9 hPa 0,0 l/m 0,0 km/h NO 14,9 C 19,0 C 0,0 km/h
18.06.2012 23:00 18,1 C 80 % 1017,0 hPa 0,0 l/m 0,0 km/h N 14,6 C 18,1 C 0,0 km/h
19.06.2012 00:00 17,3 C 81 % 1017,1 hPa 0,0 l/m 0,0 km/h N-NO 14,0 C 17,3 C 0,0 km/h
19.06.2012 01:00 15,6 C 82 % 1017,6 hPa 0,0 l/m 0,0 km/h O-SO 12,5 C 15,6 C 0,0 km/h
19.06.2012 02:00 15,1 C 83 % 1017,1 hPa 0,0 l/m 0,0 km/h O-NO 12,2 C 15,1 C 0,0 km/h
19.06.2012 03:00 14,5 C 83 % 1017,2 hPa 0,0 l/m 0,0 km/h O 11,6 C 14,5 C 0,0 km/h
19.06.2012 04:00 13,8 C 82 % 1016,5 hPa 0,0 l/m 0,0 km/h NO 10,8 C 13,8 C 0,0 km/h
19.06.2012 05:00 13,5 C 82 % 1016,3 hPa 0,0 l/m 0,0 km/h NO 10,5 C 13,5 C 0,0 km/h
19.06.2012 06:00 13,8 C 81 % 1015,9 hPa 0,0 l/m 0,0 km/h W-SW 10,6 C 13,8 C 0,0 km/h
19.06.2012 07:00 16,1 C 83 % 1016,4 hPa 0,0 l/m 0,0 km/h SW 13,2 C 16,1 C 0,0 km/h
19.06.2012 08:00 24,2 C 64 % 1015,7 hPa 0,0 l/m 0,0 km/h W-SW 16,9 C 24,2 C 0,0 km/h
19.06.2012 09:00 25,7 C 60 % 1015,7 hPa 0,0 l/m 0,0 km/h W-NW 17,3 C 25,7 C 0,0 km/h
19.06.2012 10:00 25,8 C 57 % 1015,2 hPa 0,0 l/m 0,0 km/h W-SW 16,6 C 25,8 C 0,0 km/h
19.06.2012 11:00 26,5 C 57 % 1015,1 hPa 0,0 l/m 0,0 km/h W 17,3 C 26,5 C 0,0 km/h
19.06.2012 12:00 26,4 C 62 % 1014,9 hPa 0,0 l/m 1,9 km/h NW 18,5 C 26,4 C 1,1 km/h
19.06.2012 13:00 25,7 C 60 % 1015,1 hPa 0,0 l/m 9,1 km/h W-SW 17,3 C 25,1 C 5,0 km/h
19.06.2012 14:00 25,5 C 63 % 1014,4 hPa 0,0 l/m 0,0 km/h W-NW 17,9 C 25,5 C 0,0 km/h
19.06.2012 15:00 28,9 C 58 % 1013,8 hPa 0,0 l/m 5,8 km/h W-NW 19,8 C 28,9 C 3,2 km/h
19.06.2012 16:00 25,2 C 65 % 1013,7 hPa 0,0 l/m 7,1 km/h W 18,1 C 25,0 C 4,0 km/h
19.06.2012 17:00 24,1 C 70 % 1013,6 hPa 0,0 l/m 0,0 km/h W-NW 18,3 C 24,1 C 0,0 km/h
19.06.2012 18:00 24,6 C 69 % 1012,9 hPa 0,0 l/m 0,0 km/h W-NW 18,5 C 24,6 C 0,0 km/h
19.06.2012 19:00 22,9 C 74 % 1013,4 hPa 0,0 l/m 0,0 km/h W-NW 18,0 C 22,9 C 0,0 km/h
19.06.2012 20:00 21,5 C 77 % 1014,6 hPa 0,0 l/m 0,0 km/h W 17,3 C 21,5 C 0,0 km/h
19.06.2012 21:00 19,8 C 81 % 1013,9 hPa 0,4 l/m 0,0 km/h SO 16,4 C 19,8 C 0,0 km/h
19.06.2012 22:00 18,6 C 82 % 1013,8 hPa 0,0 l/m 0,0 km/h SO 15,5 C 18,6 C 0,0 km/h
19.06.2012 23:00 18,8 C 81 % 1013,5 hPa 0,0 l/m 0,0 km/h SO 15,5 C 18,8 C 0,0 km/h
20.06.2012 00:00 18,8 C 79 % 1012,7 hPa 0,0 l/m 0,0 km/h SO 15,1 C 18,8 C 0,0 km/h
20.06.2012 01:00 18,8 C 78 % 1012,4 hPa 0,0 l/m 0,0 km/h SW 14,9 C 18,8 C 0,0 km/h
20.06.2012 02:00 18,4 C 74 % 1013,3 hPa 0,0 l/m 14,3 km/h O 13,7 C 15,5 C 7,9 km/h
20.06.2012 03:00 18,2 C 73 % 1013,4 hPa 0,7 l/m 0,0 km/h SO 13,3 C 18,2 C 0,0 km/h
20.06.2012 04:00 17,9 C 74 % 1012,1 hPa 0,4 l/m 0,0 km/h O-NO 13,2 C 17,9 C 0,0 km/h
20.06.2012 05:00 17,9 C 73 % 1012,1 hPa 0,0 l/m 0,0 km/h O-NO 13,0 C 17,9 C 0,0 km/h
20.06.2012 06:00 18,1 C 71 % 1011,8 hPa 0,0 l/m 0,0 km/h NW 12,8 C 18,1 C 0,0 km/h
20.06.2012 07:00 18,5 C 70 % 1011,6 hPa 0,0 l/m 0,0 km/h SO 12,9 C 18,5 C 0,0 km/h
20.06.2012 08:00 19,5 C 75 % 1011,7 hPa 0,4 l/m 0,0 km/h W-SW 14,9 C 19,5 C 0,0 km/h
20.06.2012 09:00 20,2 C 83 % 1012,3 hPa 0,0 l/m 0,0 km/h S 17,2 C 20,2 C 0,0 km/h
20.06.2012 10:00 20,4 C 83 % 1012,6 hPa 0,0 l/m 22,0 km/h SW 17,4 C 16,4 C 12,2 km/h
20.06.2012 11:00 21,8 C 78 % 1012,8 hPa 0,0 l/m 23,3 km/h S 17,8 C 18,0 C 13,0 km/h
20.06.2012 12:00 22,4 C 75 % 1012,8 hPa 0,0 l/m 25,3 km/h S-SO 17,7 C 18,6 C 14,0 km/h
20.06.2012 13:00 21,5 C 77 % 1012,5 hPa 0,0 l/m 20,1 km/h S-SW 17,3 C 18,1 C 11,2 km/h
20.06.2012 14:00 21,6 C 76 % 1012,7 hPa 0,0 l/m 24,0 km/h SW 17,2 C 17,7 C 13,3 km/h
20.06.2012 15:00 26,3 C 65 % 1012,1 hPa 0,0 l/m 15,6 km/h S 19,2 C 24,8 C 8,6 km/h
20.06.2012 16:00 25,5 C 64 % 1011,6 hPa 0,0 l/m 18,8 km/h W-SW 18,2 C 23,4 C 10,4 km/h
20.06.2012 17:00 25,6 C 64 % 1011,2 hPa 0,0 l/m 1,9 km/h W 18,3 C 25,6 C 1,1 km/h
20.06.2012 18:00 24,8 C 65 % 1010,9 hPa 0,0 l/m 7,8 km/h W-SW 17,8 C 24,4 C 4,3 km/h
20.06.2012 19:00 24,2 C 66 % 1010,9 hPa 0,0 l/m 13,0 km/h W-SW 17,4 C 22,7 C 7,2 km/h
20.06.2012 20:00 23,2 C 69 % 1010,9 hPa 0,0 l/m 5,2 km/h N-NO 17,2 C 23,2 C 2,9 km/h
20.06.2012 21:00 21,0 C 74 % 1011,2 hPa 0,0 l/m 0,0 km/h N 16,2 C 21,0 C 0,0 km/h
20.06.2012 22:00 20,2 C 77 % 1011,7 hPa 0,0 l/m 0,0 km/h N-NO 16,0 C 20,2 C 0,0 km/h
20.06.2012 23:00 19,2 C 80 % 1011,7 hPa 0,0 l/m 0,0 km/h N-NO 15,7 C 19,2 C 0,0 km/h
21.06.2012 00:00 18,4 C 82 % 1011,3 hPa 0,0 l/m 0,0 km/h N-NO 15,3 C 18,4 C 0,0 km/h
21.06.2012 01:00 18,1 C 82 % 1011,2 hPa 0,0 l/m 0,0 km/h N-NO 15,0 C 18,1 C 0,0 km/h
21.06.2012 02:00 16,9 C 83 % 1010,8 hPa 0,0 l/m 0,0 km/h O-NO 14,0 C 16,9 C 0,0 km/h
21.06.2012 03:00 16,8 C 83 % 1010,2 hPa 0,0 l/m 0,0 km/h NO 13,9 C 16,8 C 0,0 km/h
21.06.2012 04:00 15,2 C 83 % 1010,0 hPa 0,0 l/m 0,0 km/h NO 12,3 C 15,2 C 0,0 km/h
21.06.2012 05:00 14,1 C 82 % 1010,0 hPa 0,0 l/m 0,0 km/h S-SO 11,1 C 14,1 C 0,0 km/h
21.06.2012 06:00 14,1 C 81 % 1010,1 hPa 0,0 l/m 0,0 km/h NO 10,9 C 14,1 C 0,0 km/h
21.06.2012 07:00 17,3 C 69 % 1010,0 hPa 0,0 l/m 0,0 km/h SO 11,6 C 17,3 C 0,0 km/h
21.06.2012 08:00 19,4 C 82 % 1009,5 hPa 0,0 l/m 0,0 km/h W-NW 16,2 C 19,4 C 0,0 km/h
21.06.2012 09:00 21,4 C 76 % 1009,5 hPa 0,0 l/m 0,0 km/h W 17,0 C 21,4 C 0,0 km/h
21.06.2012 10:00 23,2 C 70 % 1009,1 hPa 0,0 l/m 0,0 km/h N-NO 17,4 C 23,2 C 0,0 km/h
21.06.2012 11:00 28,9 C 57 % 1009,1 hPa 0,0 l/m 3,2 km/h W 19,5 C 28,9 C 1,8 km/h
21.06.2012 12:00 28,6 C 57 % 1009,0 hPa 0,0 l/m 7,8 km/h NW 19,2 C 28,4 C 4,3 km/h
21.06.2012 13:00 26,6 C 59 % 1009,3 hPa 0,0 l/m 0,0 km/h W 17,9 C 26,6 C 0,0 km/h
21.06.2012 14:00 28,9 C 56 % 1008,8 hPa 0,0 l/m 0,0 km/h W-NW 19,2 C 28,9 C 0,0 km/h
21.06.2012 15:00 31,3 C 46 % 1008,3 hPa 0,0 l/m 0,0 km/h W 18,3 C 31,3 C 0,0 km/h
21.06.2012 16:00 34,9 C 40 % 1007,5 hPa 0,0 l/m 3,2 km/h W 19,3 C 34,9 C 1,8 km/h
21.06.2012 17:00 33,2 C 35 % 1007,5 hPa 0,0 l/m 3,2 km/h W 15,6 C 33,2 C 1,8 km/h
21.06.2012 18:00 28,2 C 53 % 1007,3 hPa 0,0 l/m 0,0 km/h SW 17,7 C 28,2 C 0,0 km/h
21.06.2012 19:00 23,8 C 70 % 1008,1 hPa 0,0 l/m 0,0 km/h SO 18,0 C 23,8 C 0,0 km/h
21.06.2012 20:00 17,3 C 82 % 1011,3 hPa 2,8 l/m 16,2 km/h SO 14,2 C 13,6 C 9,0 km/h
21.06.2012 21:00 17,2 C 83 % 1011,6 hPa 1,4 l/m 0,0 km/h S-SO 14,3 C 17,2 C 0,0 km/h
21.06.2012 22:00 15,9 C 83 % 1011,7 hPa 0,0 l/m 0,0 km/h O-NO 13,0 C 15,9 C 0,0 km/h
21.06.2012 23:00 16,3 C 82 % 1013,4 hPa 0,0 l/m 0,0 km/h O-NO 13,2 C 16,3 C 0,0 km/h
22.06.2012 00:00 15,8 C 82 % 1013,8 hPa 0,0 l/m 0,0 km/h O-NO 12,7 C 15,8 C 0,0 km/h
22.06.2012 01:00 15,8 C 80 % 1014,2 hPa 0,0 l/m 0,0 km/h O-SO 12,4 C 15,8 C 0,0 km/h
22.06.2012 02:00 15,8 C 80 % 1014,6 hPa 0,0 l/m 0,0 km/h N-NW 12,4 C 15,8 C 0,0 km/h
22.06.2012 03:00 16,4 C 77 % 1015,3 hPa 0,0 l/m 0,0 km/h W-SW 12,4 C 16,4 C 0,0 km/h
22.06.2012 04:00 16,4 C 82 % 1016,3 hPa 0,0 l/m 0,0 km/h SW 13,3 C 16,4 C 0,0 km/h
22.06.2012 05:00 15,6 C 82 % 1017,0 hPa 0,0 l/m 0,0 km/h SW 12,5 C 15,6 C 0,0 km/h
22.06.2012 06:00 15,0 C 84 % 1017,9 hPa 0,0 l/m 25,9 km/h W 12,3 C 8,4 C 14,4 km/h
22.06.2012 07:00 14,8 C 82 % 1018,4 hPa 0,0 l/m 0,0 km/h SW 11,8 C 14,8 C 0,0 km/h
22.06.2012 08:00 20,6 C 62 % 1018,8 hPa 0,0 l/m 24,0 km/h W 13,1 C 16,3 C 13,3 km/h
22.06.2012 09:00 21,4 C 56 % 1019,1 hPa 0,0 l/m 25,3 km/h W-SW 12,3 C 17,2 C 14,0 km/h
22.06.2012 10:00 22,2 C 52 % 1019,7 hPa 0,0 l/m 18,8 km/h W-SW 11,9 C 19,2 C 10,4 km/h
22.06.2012 11:00 21,8 C 52 % 1019,9 hPa 0,0 l/m 24,0 km/h S-SW 11,5 C 18,0 C 13,3 km/h
22.06.2012 12:00 21,8 C 49 % 1020,0 hPa 0,0 l/m 13,0 km/h S-SW 10,6 C 19,9 C 7,2 km/h
22.06.2012 13:00 22,1 C 46 % 1019,8 hPa 0,0 l/m 23,3 km/h S 9,9 C 18,4 C 13,0 km/h
22.06.2012 14:00 22,5 C 46 % 1019,7 hPa 0,0 l/m 27,2 km/h W-SW 10,3 C 18,5 C 15,1 km/h
22.06.2012 15:00 24,8 C 42 % 1019,6 hPa 0,0 l/m 25,3 km/h W 11,0 C 21,9 C 14,0 km/h
22.06.2012 16:00 27,5 C 36 % 1019,4 hPa 0,0 l/m 7,1 km/h S-SW 11,1 C 27,4 C 4,0 km/h
22.06.2012 17:00 28,9 C 33 % 1019,3 hPa 0,0 l/m 13,6 km/h W 11,0 C 28,1 C 7,6 km/h
22.06.2012 18:00 27,6 C 30 % 1019,2 hPa 0,0 l/m 21,4 km/h W 8,4 C 25,9 C 11,9 km/h
22.06.2012 19:00 24,7 C 34 % 1019,6 hPa 0,0 l/m 10,4 km/h W 7,8 C 23,7 C 5,8 km/h
22.06.2012 20:00 19,8 C 48 % 1019,9 hPa 0,0 l/m 1,9 km/h W-NW 8,5 C 19,8 C 1,1 km/h
22.06.2012 21:00 16,9 C 59 % 1020,2 hPa 0,0 l/m 0,0 km/h NO 8,8 C 16,9 C 0,0 km/h
22.06.2012 22:00 14,3 C 69 % 1021,0 hPa 0,0 l/m 0,0 km/h O-SO 8,7 C 14,3 C 0,0 km/h
22.06.2012 23:00 12,5 C 76 % 1021,6 hPa 0,0 l/m 0,0 km/h O 8,4 C 12,5 C 0,0 km/h
23.06.2012 00:00 12,0 C 78 % 1021,9 hPa 0,0 l/m 0,0 km/h O 8,3 C 12,0 C 0,0 km/h
23.06.2012 01:00 11,3 C 79 % 1022,0 hPa 0,0 l/m 0,0 km/h SO 7,8 C 11,3 C 0,0 km/h
23.06.2012 02:00 10,9 C 81 % 1021,8 hPa 0,0 l/m 0,0 km/h O-NO 7,8 C 10,9 C 0,0 km/h
23.06.2012 03:00 10,5 C 82 % 1022,0 hPa 0,0 l/m 0,0 km/h SO 7,6 C 10,5 C 0,0 km/h
23.06.2012 04:00 10,4 C 83 % 1022,0 hPa 0,0 l/m 0,0 km/h O-SO 7,6 C 10,4 C 0,0 km/h
23.06.2012 05:00 9,9 C 84 % 1022,2 hPa 0,0 l/m 0,0 km/h SO 7,3 C 9,9 C 0,0 km/h
23.06.2012 06:00 10,9 C 84 % 1022,4 hPa 0,0 l/m 0,0 km/h SO 8,3 C 10,9 C 0,0 km/h
23.06.2012 07:00 13,4 C 82 % 1022,6 hPa 0,0 l/m 2,6 km/h SO 10,4 C 13,4 C 1,4 km/h
23.06.2012 08:00 17,3 C 73 % 1023,1 hPa 0,0 l/m 0,0 km/h W-NW 12,4 C 17,3 C 0,0 km/h
23.06.2012 09:00 22,5 C 56 % 1022,8 hPa 0,0 l/m 0,0 km/h W-SW 13,3 C 22,5 C 0,0 km/h
23.06.2012 10:00 25,9 C 47 % 1022,6 hPa 0,0 l/m 0,0 km/h W 13,7 C 25,9 C 0,0 km/h
23.06.2012 11:00 27,0 C 40 % 1022,6 hPa 0,0 l/m 9,1 km/h S 12,2 C 26,5 C 5,0 km/h
23.06.2012 12:00 25,1 C 41 % 1022,4 hPa 0,0 l/m 9,1 km/h NW 10,9 C 24,5 C 5,0 km/h
23.06.2012 13:00 25,7 C 41 % 1021,9 hPa 0,0 l/m 5,2 km/h W 11,4 C 25,7 C 2,9 km/h
23.06.2012 14:00 26,6 C 39 % 1021,5 hPa 0,0 l/m 3,2 km/h W 11,5 C 26,6 C 1,8 km/h
23.06.2012 15:00 27,4 C 37 % 1021,3 hPa 0,0 l/m 10,4 km/h W-NW 11,4 C 26,8 C 5,8 km/h
23.06.2012 16:00 30,9 C 31 % 1021,0 hPa 0,0 l/m 0,0 km/h NW 11,8 C 30,9 C 0,0 km/h
23.06.2012 17:00 31,9 C 31 % 1020,6 hPa 0,0 l/m 3,2 km/h SW 12,6 C 31,9 C 1,8 km/h
23.06.2012 18:00 30,8 C 29 % 1020,2 hPa 0,0 l/m 8,4 km/h W-SW 10,7 C 30,7 C 4,7 km/h
23.06.2012 19:00 27,2 C 37 % 1020,1 hPa 0,0 l/m 1,3 km/h W 11,2 C 27,2 C 0,7 km/h
23.06.2012 20:00 21,9 C 45 % 1019,9 hPa 0,0 l/m 0,0 km/h O-NO 9,4 C 21,9 C 0,0 km/h
23.06.2012 21:00 18,4 C 59 % 1020,0 hPa 0,0 l/m 0,0 km/h NO 10,2 C 18,4 C 0,0 km/h
23.06.2012 22:00 15,6 C 67 % 1020,5 hPa 0,0 l/m 0,0 km/h O 9,5 C 15,6 C 0,0 km/h
23.06.2012 23:00 13,6 C 75 % 1020,7 hPa 0,0 l/m 0,0 km/h NO 9,3 C 13,6 C 0,0 km/h
24.06.2012 00:00 12,5 C 77 % 1020,6 hPa 0,0 l/m 0,0 km/h NO 8,6 C 12,5 C 0,0 km/h
24.06.2012 01:00 11,6 C 80 % 1020,2 hPa 0,0 l/m 0,0 km/h NO 8,3 C 11,6 C 0,0 km/h
24.06.2012 02:00 11,4 C 81 % 1020,2 hPa 0,0 l/m 0,0 km/h NO 8,3 C 11,4 C 0,0 km/h
24.06.2012 03:00 10,5 C 83 % 1020,2 hPa 0,0 l/m 0,0 km/h SO 7,7 C 10,5 C 0,0 km/h
24.06.2012 04:00 10,1 C 83 % 1019,7 hPa 0,0 l/m 0,0 km/h NO 7,3 C 10,1 C 0,0 km/h
24.06.2012 05:00 9,5 C 84 % 1019,5 hPa 0,0 l/m 0,0 km/h O-NO 6,9 C 9,5 C 0,0 km/h
24.06.2012 06:00 9,9 C 84 % 1019,1 hPa 0,0 l/m 0,0 km/h O-SO 7,3 C 9,9 C 0,0 km/h
24.06.2012 07:00 13,0 C 84 % 1018,9 hPa 0,0 l/m 0,0 km/h SO 10,4 C 13,0 C 0,0 km/h
24.06.2012 08:00 20,9 C 65 % 1018,4 hPa 0,0 l/m 0,0 km/h S-SW 14,1 C 20,9 C 0,0 km/h
24.06.2012 09:00 25,9 C 48 % 1017,9 hPa 0,0 l/m 2,6 km/h W 14,0 C 25,9 C 1,4 km/h
24.06.2012 10:00 26,3 C 48 % 1017,7 hPa 0,0 l/m 9,1 km/h W 14,4 C 25,8 C 5,0 km/h
24.06.2012 11:00 26,8 C 47 % 1016,8 hPa 0,0 l/m 6,5 km/h SW 14,5 C 26,8 C 3,6 km/h
24.06.2012 12:00 25,2 C 47 % 1016,5 hPa 0,0 l/m 19,4 km/h SW 13,1 C 23,0 C 10,8 km/h
24.06.2012 13:00 24,6 C 49 % 1016,1 hPa 0,0 l/m 21,4 km/h SW 13,2 C 22,0 C 11,9 km/h
24.06.2012 14:00 24,6 C 48 % 1015,8 hPa 0,0 l/m 23,3 km/h W-SW 12,8 C 21,8 C 13,0 km/h
24.06.2012 15:00 24,4 C 48 % 1015,3 hPa 0,0 l/m 20,1 km/h SW 12,7 C 21,9 C 11,2 km/h
24.06.2012 16:00 22,2 C 56 % 1014,9 hPa 0,0 l/m 20,7 km/h S-SW 13,0 C 18,9 C 11,5 km/h
24.06.2012 17:00 22,2 C 55 % 1014,5 hPa 0,0 l/m 29,8 km/h W-SW 12,7 C 17,8 C 16,6 km/h
24.06.2012 18:00 21,1 C 60 % 1014,1 hPa 0,0 l/m 16,2 km/h W 13,0 C 18,3 C 9,0 km/h
24.06.2012 19:00 20,2 C 65 % 1014,3 hPa 0,0 l/m 5,8 km/h W-SW 13,4 C 20,2 C 3,2 km/h
24.06.2012 20:00 20,1 C 58 % 1014,0 hPa 0,0 l/m 3,2 km/h S-SO 11,6 C 20,1 C 1,8 km/h
24.06.2012 21:00 17,6 C 72 % 1014,6 hPa 0,0 l/m 13,0 km/h W-NW 12,5 C 14,9 C 7,2 km/h
24.06.2012 22:00 17,9 C 73 % 1015,0 hPa 0,0 l/m 0,0 km/h W 13,0 C 17,9 C 0,0 km/h
24.06.2012 23:00 16,9 C 80 % 1015,4 hPa 0,4 l/m 0,0 km/h SO 13,4 C 16,9 C 0,0 km/h
Min-Datum _ 24.06.12 23.06.12 21.06.12 - 18.06.12 - 24.06.12 22.06.12 18.06.12
_ Min-Zeit 05:19 18:19 18:19 - 00:19 - 05:19 06:19 00:19
Minimum _ 9,5 C 29 % 1007,3 hPa - 0,0 km/h - 6,9 C 8,4 C 0,0 km/h
Max-Datum _ 21.06.12 22.06.12 23.06.12 21.06.12 18.06.12 - 19.06.12 21.06.12 18.06.12
_ Max-Zeit 16:19 06:19 08:19 20:19 11:19 - 15:19 16:19 11:19
Maximum _ 34,9 C 84 % 1023,1 hPa 2,8 l/m 30,5 km/h
SW
- 19,8 C 34,9 C 16,9 km/h
SW
Durchschnitt _ 20,7 C 66 % 1015,5 hPa #6,4 l/m 5,3 km/h W 13,5 C 20,1 C 2,9 km/h
www.sexauwetter.de